createdAt,value
2023-04-09T00:02:56.813Z,10.70
2023-04-09T00:06:58.138Z,10.70
2023-04-09T00:10:59.700Z,10.60
2023-04-09T00:15:01.351Z,10.50
2023-04-09T00:19:02.544Z,10.40
2023-04-09T00:23:03.732Z,10.30
2023-04-09T00:27:04.898Z,10.30
2023-04-09T00:31:06.109Z,10.30
2023-04-09T00:35:08.108Z,10.10
2023-04-09T00:39:09.273Z,10.00
2023-04-09T00:43:11.548Z,9.90
2023-04-09T00:47:12.847Z,9.80
2023-04-09T00:51:14.016Z,9.70
2023-04-09T00:55:16.112Z,9.60
2023-04-09T00:59:17.467Z,9.60
2023-04-09T01:03:18.804Z,9.50
2023-04-09T01:07:54.387Z,9.50
2023-04-09T01:12:00.892Z,9.40
2023-04-09T01:16:03.223Z,9.30
2023-04-09T01:20:17.198Z,9.30
2023-04-09T01:24:37.017Z,9.30
2023-04-09T01:28:44.077Z,9.20
2023-04-09T01:32:45.458Z,9.20
2023-04-09T01:36:50.437Z,9.10
2023-04-09T01:40:53.206Z,9.00
2023-04-09T01:44:54.709Z,8.90
2023-04-09T01:48:56.962Z,8.90
2023-04-09T01:53:02.446Z,9.00
2023-04-09T01:57:03.586Z,8.80
2023-04-09T02:01:08.523Z,8.80
2023-04-09T02:05:13.454Z,8.60
2023-04-09T02:09:18.017Z,8.50
2023-04-09T02:13:20.306Z,8.50
2023-04-09T02:17:21.596Z,8.40
2023-04-09T02:21:23.443Z,8.40
2023-04-09T02:25:26.117Z,8.30
2023-04-09T02:29:27.467Z,8.10
2023-04-09T02:33:28.630Z,8.10
2023-04-09T02:37:29.799Z,8.10
2023-04-09T02:41:31.003Z,8.10
2023-04-09T02:45:32.165Z,8.10
2023-04-09T02:49:33.355Z,8.20
2023-04-09T02:53:34.532Z,8.30
2023-04-09T02:57:36.613Z,8.30
2023-04-09T03:01:37.849Z,8.30
2023-04-09T03:05:39.065Z,8.20
2023-04-09T03:09:40.347Z,8.10
2023-04-09T03:13:41.521Z,8.00
2023-04-09T03:17:42.683Z,7.90
2023-04-09T03:21:43.858Z,7.80
2023-04-09T03:25:45.116Z,7.80
2023-04-09T03:29:46.278Z,7.80
2023-04-09T03:33:47.558Z,7.80
2023-04-09T03:37:48.775Z,7.70
2023-04-09T03:41:50.025Z,7.60
2023-04-09T03:45:51.189Z,7.50
2023-04-09T03:49:52.339Z,7.40
2023-04-09T03:53:53.520Z,7.40
2023-04-09T03:57:54.692Z,7.40
2023-04-09T04:01:56.101Z,7.40
2023-04-09T04:06:02.160Z,7.40
2023-04-09T04:10:05.145Z,7.30
2023-04-09T04:14:06.329Z,7.30
2023-04-09T04:18:08.483Z,7.30
2023-04-09T04:22:09.795Z,7.50
2023-04-09T04:26:11.367Z,7.60
2023-04-09T04:30:12.612Z,7.50
2023-04-09T04:34:13.792Z,7.50
2023-04-09T04:38:14.971Z,7.40
2023-04-09T04:42:16.742Z,7.40
2023-04-09T04:46:19.871Z,7.50
2023-04-09T04:51:10.977Z,7.40
2023-04-09T04:55:12.160Z,7.30
2023-04-09T04:59:13.356Z,7.20
2023-04-09T05:03:14.680Z,7.30
2023-04-09T05:07:15.946Z,7.30
2023-04-09T05:11:17.216Z,7.30
2023-04-09T05:15:18.505Z,7.20
2023-04-09T05:19:19.717Z,7.10
2023-04-09T05:23:20.979Z,7.10
2023-04-09T05:27:23.577Z,7.10
2023-04-09T05:31:24.850Z,7.20
2023-04-09T05:35:26.062Z,7.20
2023-04-09T05:39:27.223Z,7.30
2023-04-09T05:43:28.411Z,7.40
2023-04-09T05:47:29.927Z,7.50
2023-04-09T05:51:31.312Z,7.50
2023-04-09T05:55:32.493Z,7.60
2023-04-09T05:59:33.693Z,7.50
2023-04-09T06:03:35.317Z,7.50
2023-04-09T06:07:36.581Z,7.60
2023-04-09T06:11:37.784Z,7.70
2023-04-09T06:15:39.011Z,8.00
2023-04-09T06:19:40.175Z,8.10
2023-04-09T06:23:41.386Z,8.20
2023-04-09T06:27:42.549Z,8.50
2023-04-09T06:31:43.764Z,8.70
2023-04-09T06:35:45.145Z,8.80
2023-04-09T06:39:58.088Z,8.90
2023-04-09T06:43:49.282Z,9.10
2023-04-09T06:47:50.720Z,9.30
2023-04-09T06:51:55.423Z,9.40
2023-04-09T06:55:57.223Z,9.60
2023-04-09T06:59:58.474Z,9.60
2023-04-09T07:03:59.758Z,9.50
2023-04-09T07:08:01.142Z,9.80
2023-04-09T07:12:02.370Z,10.50
2023-04-09T07:16:04.575Z,10.50
2023-04-09T07:20:06.841Z,10.70
2023-04-09T07:24:08.064Z,10.60
2023-04-09T07:28:09.423Z,11.00
2023-04-09T07:32:10.970Z,11.30
2023-04-09T07:36:12.461Z,11.50
2023-04-09T07:40:13.695Z,11.80
2023-04-09T07:44:14.936Z,11.60
2023-04-09T07:48:16.125Z,11.60
2023-04-09T07:52:17.295Z,11.70
2023-04-09T07:56:18.473Z,11.90
2023-04-09T08:00:19.909Z,11.70
2023-04-09T08:04:21.306Z,11.90
2023-04-09T08:08:22.661Z,12.20
2023-04-09T08:12:23.844Z,12.40
2023-04-09T08:16:25.239Z,12.50
2023-04-09T08:20:27.382Z,12.40
2023-04-09T08:24:28.541Z,12.70
2023-04-09T08:28:30.494Z,12.90
2023-04-09T08:32:31.701Z,12.70
2023-04-09T08:36:34.710Z,12.80
2023-04-09T08:40:36.527Z,12.90
2023-04-09T08:44:38.010Z,13.20
2023-04-09T08:48:41.860Z,13.20
2023-04-09T08:52:46.285Z,13.20
2023-04-09T08:56:47.456Z,13.10
2023-04-09T09:00:48.623Z,13.30
2023-04-09T09:04:50.321Z,13.40
2023-04-09T09:09:08.714Z,13.30
2023-04-09T09:13:22.308Z,13.70
2023-04-09T09:17:24.200Z,13.80
2023-04-09T09:21:28.309Z,14.20
2023-04-09T09:25:30.188Z,14.50
2023-04-09T09:29:32.331Z,13.90
2023-04-09T09:33:33.497Z,14.70
2023-04-09T09:37:34.672Z,15.10
2023-04-09T09:41:36.598Z,14.60
2023-04-09T09:45:38.284Z,14.80
2023-04-09T09:49:39.648Z,15.60
2023-04-09T09:53:44.433Z,15.90
2023-04-09T09:57:47.429Z,15.90
2023-04-09T10:01:52.519Z,16.10
2023-04-09T10:05:54.795Z,15.70
2023-04-09T10:09:57.835Z,15.50
2023-04-09T10:14:00.116Z,15.20
2023-04-09T10:18:02.559Z,14.90
2023-04-09T10:22:13.150Z,14.70
2023-04-09T10:26:14.687Z,15.00
2023-04-09T10:30:35.388Z,14.80
2023-04-09T10:34:44.448Z,14.90
2023-04-09T10:38:46.246Z,15.00
2023-04-09T10:42:48.661Z,14.80
2023-04-09T10:46:52.892Z,15.20
2023-04-09T10:50:54.963Z,14.90
2023-04-09T10:54:56.530Z,14.90
2023-04-09T10:58:57.685Z,14.90
2023-04-09T11:03:14.676Z,14.80
2023-04-09T11:07:18.707Z,14.90
2023-04-09T11:11:23.688Z,15.10
2023-04-09T11:15:24.913Z,15.70
2023-04-09T11:19:28.032Z,15.70
2023-04-09T11:23:30.510Z,15.80
2023-04-09T11:27:37.297Z,15.50
2023-04-09T11:31:38.490Z,15.70
2023-04-09T11:35:39.940Z,16.10
2023-04-09T11:39:43.855Z,16.30
2023-04-09T11:43:45.038Z,16.00
2023-04-09T11:47:46.714Z,16.00
2023-04-09T11:51:48.386Z,16.40
2023-04-09T11:55:51.262Z,16.10
2023-04-09T11:59:52.451Z,16.30
2023-04-09T12:03:55.331Z,15.80
2023-04-09T12:08:01.867Z,16.00
2023-04-09T12:12:06.917Z,15.90
2023-04-09T12:16:11.607Z,16.10
2023-04-09T12:20:12.868Z,16.40
2023-04-09T12:24:16.420Z,16.40
2023-04-09T12:28:17.605Z,16.20
2023-04-09T12:32:18.802Z,15.90
2023-04-09T12:36:20.161Z,16.20
2023-04-09T12:40:21.836Z,16.80
2023-04-09T12:44:23.038Z,16.10
2023-04-09T12:48:24.187Z,16.10
2023-04-09T12:52:27.305Z,16.90
2023-04-09T12:56:29.824Z,16.80
2023-04-09T13:00:32.702Z,16.80
2023-04-09T13:04:34.062Z,16.70
2023-04-09T13:08:35.829Z,16.70
2023-04-09T13:12:37.097Z,17.10
2023-04-09T13:16:39.728Z,17.00
2023-04-09T13:20:41.079Z,16.80
2023-04-09T13:24:42.652Z,17.40
2023-04-09T13:28:43.854Z,17.50
2023-04-09T13:32:45.146Z,17.80
2023-04-09T13:36:46.329Z,17.90
2023-04-09T13:40:47.507Z,17.70
2023-04-09T13:44:48.674Z,17.40
2023-04-09T13:48:50.056Z,17.40
2023-04-09T13:52:51.248Z,17.30
2023-04-09T13:56:52.500Z,17.70
2023-04-09T14:00:53.660Z,18.00
2023-04-09T14:04:56.421Z,17.90
2023-04-09T14:08:57.580Z,18.10
2023-04-09T14:12:58.673Z,17.70
2023-04-09T14:16:59.745Z,17.50
2023-04-09T14:21:00.790Z,17.60
2023-04-09T14:25:11.179Z,17.60
2023-04-09T14:29:12.386Z,17.00
2023-04-09T14:33:13.697Z,16.90
2023-04-09T14:37:14.849Z,16.80
2023-04-09T14:41:16.206Z,16.80
2023-04-09T14:45:17.454Z,16.90
2023-04-09T14:49:18.589Z,17.20
2023-04-09T14:53:20.275Z,17.70
2023-04-09T14:57:21.438Z,18.00
2023-04-09T15:01:22.745Z,18.70
2023-04-09T15:05:23.906Z,18.90
2023-04-09T15:09:25.593Z,18.70
2023-04-09T15:13:26.798Z,19.10
2023-04-09T15:17:29.894Z,19.00
2023-04-09T15:21:31.031Z,18.00
2023-04-09T15:25:32.385Z,17.90
2023-04-09T15:29:33.635Z,17.70
2023-04-09T15:33:34.825Z,17.50
2023-04-09T15:37:37.930Z,17.30
2023-04-09T15:41:39.109Z,17.30
2023-04-09T15:45:40.738Z,17.30
2023-04-09T15:49:42.333Z,17.30
2023-04-09T15:53:43.509Z,17.10
2023-04-09T15:57:46.095Z,16.90
2023-04-09T16:01:48.007Z,16.90
2023-04-09T16:05:49.253Z,16.80
2023-04-09T16:09:50.537Z,16.70
2023-04-09T16:13:51.680Z,16.60
2023-04-09T16:17:52.906Z,16.70
2023-04-09T16:21:54.076Z,16.80
2023-04-09T16:25:55.263Z,16.70
2023-04-09T16:29:56.507Z,16.40
2023-04-09T16:33:57.812Z,16.40
2023-04-09T16:37:59.278Z,16.60
2023-04-09T16:42:01.059Z,16.40
2023-04-09T16:46:02.458Z,16.40
2023-04-09T16:50:04.747Z,16.40
2023-04-09T16:54:10.464Z,16.40
2023-04-09T16:58:11.682Z,16.40
2023-04-09T17:02:12.937Z,16.30
2023-04-09T17:06:14.250Z,16.20
2023-04-09T17:10:15.522Z,16.00
2023-04-09T17:14:16.830Z,16.10
2023-04-09T17:18:19.123Z,16.00
2023-04-09T17:22:20.270Z,16.10
2023-04-09T17:26:21.341Z,15.90
2023-04-09T17:30:22.527Z,16.00
2023-04-09T17:34:24.310Z,16.00
2023-04-09T17:38:26.403Z,16.10
2023-04-09T17:42:28.772Z,16.10
2023-04-09T17:46:29.976Z,16.10
2023-04-09T17:50:31.103Z,15.90
2023-04-09T17:54:35.188Z,15.80
2023-04-09T17:58:36.353Z,15.60
2023-04-09T18:02:37.855Z,15.60
2023-04-09T18:06:39.143Z,15.40
2023-04-09T18:10:40.720Z,15.20
2023-04-09T18:14:41.889Z,15.00
2023-04-09T18:18:43.078Z,15.00
2023-04-09T18:22:44.381Z,14.80
2023-04-09T18:26:45.515Z,14.80
2023-04-09T18:30:46.714Z,14.60
2023-04-09T18:34:47.891Z,14.50
2023-04-09T18:38:49.101Z,14.40
2023-04-09T18:42:53.763Z,14.30
2023-04-09T18:46:55.007Z,14.20
2023-04-09T18:50:56.209Z,14.00
2023-04-09T18:54:57.551Z,13.80
2023-04-09T18:58:58.687Z,13.90
2023-04-09T19:03:00.208Z,13.60
2023-04-09T19:07:02.108Z,13.50
2023-04-09T19:11:07.552Z,13.50
2023-04-09T19:15:09.927Z,13.30
2023-04-09T19:19:11.236Z,13.30
2023-04-09T19:23:12.586Z,13.20
2023-04-09T19:27:13.769Z,13.20
2023-04-09T19:31:16.257Z,13.00
2023-04-09T19:35:17.413Z,12.80
2023-04-09T19:39:18.818Z,12.90
2023-04-09T19:43:20.379Z,12.80
2023-04-09T19:47:21.577Z,12.70
2023-04-09T19:51:22.704Z,12.60
2023-04-09T19:55:24.397Z,12.40
2023-04-09T19:59:25.592Z,12.40
2023-04-09T20:03:26.986Z,12.40
2023-04-09T20:07:28.232Z,12.50
2023-04-09T20:11:29.443Z,12.50
2023-04-09T20:15:30.748Z,12.50
2023-04-09T20:19:31.936Z,12.40
2023-04-09T20:23:33.354Z,12.20
2023-04-09T20:27:34.459Z,12.20
2023-04-09T20:31:36.752Z,12.10
2023-04-09T20:35:41.384Z,12.00
2023-04-09T20:39:43.329Z,11.90
2023-04-09T20:43:45.804Z,11.60
2023-04-09T20:47:46.960Z,11.60
2023-04-09T20:51:49.199Z,11.40
2023-04-09T20:55:55.620Z,11.30
2023-04-09T21:00:00.867Z,11.30
2023-04-09T21:04:08.947Z,11.20
2023-04-09T21:08:14.336Z,11.10
2023-04-09T21:12:15.920Z,11.10
2023-04-09T21:16:17.857Z,10.80
2023-04-09T21:20:19.623Z,10.80
2023-04-09T21:24:22.808Z,10.70
2023-04-09T21:28:27.486Z,10.70
2023-04-09T21:32:34.652Z,10.60
2023-04-09T21:36:38.417Z,10.60
2023-04-09T21:40:49.764Z,10.50
2023-04-09T21:44:57.217Z,10.40
2023-04-09T21:49:06.820Z,10.40
2023-04-09T21:53:19.873Z,10.30
2023-04-09T21:57:23.055Z,10.30
2023-04-09T22:01:30.882Z,10.10
2023-04-09T22:05:33.708Z,10.10
2023-04-09T22:09:35.293Z,10.10
2023-04-09T22:13:36.469Z,10.00
2023-04-09T22:17:38.093Z,10.00
2023-04-09T22:21:40.642Z,9.90
2023-04-09T22:25:41.830Z,9.90
2023-04-09T22:29:43.016Z,9.90
2023-04-09T22:33:44.192Z,9.80
2023-04-09T22:37:46.298Z,9.70
2023-04-09T22:41:47.477Z,9.80
2023-04-09T22:45:51.440Z,9.70
2023-04-09T22:49:54.219Z,9.70
2023-04-09T22:53:55.532Z,9.60
2023-04-09T22:57:57.613Z,9.60
2023-04-09T23:01:59.168Z,9.70
2023-04-09T23:06:00.926Z,9.80
2023-04-09T23:10:04.039Z,9.80
2023-04-09T23:14:05.292Z,9.90
2023-04-09T23:18:07.036Z,9.90
2023-04-09T23:22:08.664Z,9.80
2023-04-09T23:26:10.577Z,9.80
2023-04-09T23:30:14.300Z,9.70
2023-04-09T23:34:15.806Z,9.60
2023-04-09T23:38:17.582Z,9.60
2023-04-09T23:42:19.456Z,9.50
2023-04-09T23:46:21.038Z,9.40
2023-04-09T23:50:23.865Z,9.30
2023-04-09T23:54:25.537Z,9.40
2023-04-09T23:58:26.662Z,9.30
